createdAt,value
2023-09-05T00:00:14.530Z,12.47
2023-09-05T00:03:38.570Z,12.45
2023-09-05T00:06:42.683Z,12.42
2023-09-05T00:09:47.929Z,12.36
2023-09-05T00:12:52.731Z,12.35
2023-09-05T00:15:56.796Z,12.35
2023-09-05T00:19:00.588Z,12.34
2023-09-05T00:22:04.438Z,12.32
2023-09-05T00:25:12.348Z,12.28
2023-09-05T00:28:16.808Z,12.24
2023-09-05T00:31:20.509Z,12.22
2023-09-05T00:34:25.074Z,12.18
2023-09-05T00:37:29.134Z,12.13
2023-09-05T00:40:34.497Z,12.08
2023-09-05T00:43:38.063Z,12.02
2023-09-05T00:46:43.575Z,11.96
2023-09-05T00:49:49.683Z,11.94
2023-09-05T00:52:53.769Z,11.89
2023-09-05T00:55:58.710Z,11.85
2023-09-05T00:59:03.072Z,11.84
2023-09-05T01:02:06.777Z,11.83
2023-09-05T01:05:12.402Z,11.80
2023-09-05T01:08:27.692Z,11.74
2023-09-05T01:11:33.591Z,11.69
2023-09-05T01:14:37.165Z,11.61
2023-09-05T01:17:42.161Z,11.55
2023-09-05T01:21:01.194Z,11.51
2023-09-05T01:24:18.556Z,11.56
2023-09-05T01:27:23.916Z,11.57
2023-09-05T01:30:29.957Z,11.51
2023-09-05T01:33:40.040Z,11.46
2023-09-05T01:36:44.160Z,11.38
2023-09-05T01:39:49.180Z,11.26
2023-09-05T01:42:53.219Z,11.17
2023-09-05T01:45:57.191Z,11.12
2023-09-05T01:49:01.722Z,11.07
2023-09-05T01:52:05.812Z,11.04
2023-09-05T01:55:11.618Z,11.04
2023-09-05T01:58:15.245Z,11.01
2023-09-05T02:01:19.169Z,10.96
2023-09-05T02:04:23.420Z,10.91
2023-09-05T02:07:27.585Z,10.90
2023-09-05T02:10:32.937Z,10.91
2023-09-05T02:13:37.084Z,10.92
2023-09-05T02:16:40.799Z,10.94
2023-09-05T02:19:45.222Z,10.93
2023-09-05T02:22:49.027Z,10.96
2023-09-05T02:26:00.560Z,10.94
2023-09-05T02:29:04.435Z,10.88
2023-09-05T02:32:09.094Z,10.80
2023-09-05T02:35:13.793Z,10.77
2023-09-05T02:38:18.561Z,10.71
2023-09-05T02:41:23.769Z,10.67
2023-09-05T02:44:27.740Z,10.64
2023-09-05T02:47:31.617Z,10.55
2023-09-05T02:50:36.093Z,10.50
2023-09-05T02:53:40.559Z,10.50
2023-09-05T02:56:46.224Z,10.51
2023-09-05T02:59:49.964Z,10.49
2023-09-05T03:02:54.053Z,10.46
2023-09-05T03:05:58.103Z,10.44
2023-09-05T03:09:02.589Z,10.40
2023-09-05T03:12:09.052Z,10.35
2023-09-05T03:15:19.896Z,10.29
2023-09-05T03:18:24.248Z,10.24
2023-09-05T03:21:28.477Z,10.22
2023-09-05T03:24:32.979Z,10.15
2023-09-05T03:27:38.416Z,10.13
2023-09-05T03:30:44.538Z,10.15
2023-09-05T03:33:48.830Z,10.14
2023-09-05T03:36:52.608Z,10.12
2023-09-05T03:39:56.995Z,10.16
2023-09-05T03:43:02.037Z,10.16
2023-09-05T03:46:06.266Z,10.15
2023-09-05T03:49:10.118Z,10.13
2023-09-05T03:52:14.020Z,10.12
2023-09-05T03:55:18.026Z,10.10
2023-09-05T03:58:23.428Z,10.05
2023-09-05T04:01:27.354Z,10.06
2023-09-05T04:04:31.614Z,10.05
2023-09-05T04:07:36.943Z,10.04
2023-09-05T04:10:42.026Z,10.07
2023-09-05T04:13:47.228Z,10.11
2023-09-05T04:16:51.093Z,10.10
2023-09-05T04:19:55.732Z,10.05
2023-09-05T04:22:59.635Z,10.00
2023-09-05T04:26:04.369Z,10.00
2023-09-05T04:29:09.774Z,10.00
2023-09-05T04:32:13.329Z,9.97
2023-09-05T04:35:17.705Z,9.97
2023-09-05T04:38:24.006Z,10.06
2023-09-05T04:41:28.220Z,10.17
2023-09-05T04:44:33.649Z,10.27
2023-09-05T04:47:37.868Z,10.34
2023-09-05T04:50:41.561Z,10.41
2023-09-05T04:53:45.601Z,10.50
2023-09-05T04:56:49.180Z,10.57
2023-09-05T04:59:58.967Z,10.66
2023-09-05T05:03:03.081Z,10.75
2023-09-05T05:06:07.306Z,10.76
2023-09-05T05:09:10.981Z,10.79
2023-09-05T05:12:15.277Z,10.84
2023-09-05T05:15:20.400Z,10.92
2023-09-05T05:18:24.356Z,11.04
2023-09-05T05:21:28.344Z,11.10
2023-09-05T05:24:32.257Z,11.19
2023-09-05T05:27:35.814Z,11.27
2023-09-05T05:30:41.278Z,11.33
2023-09-05T05:33:44.981Z,11.42
2023-09-05T05:36:49.144Z,11.50
2023-09-05T05:39:52.952Z,11.61
2023-09-05T05:42:57.022Z,11.74
2023-09-05T05:46:02.019Z,11.89
2023-09-05T05:49:05.838Z,12.03
2023-09-05T05:52:11.850Z,12.15
2023-09-05T05:55:15.776Z,12.30
2023-09-05T05:58:19.501Z,12.43
2023-09-05T06:01:24.905Z,12.56
2023-09-05T06:04:28.843Z,12.67
2023-09-05T06:07:32.771Z,12.78
2023-09-05T06:10:36.904Z,12.91
2023-09-05T06:13:41.086Z,13.07
2023-09-05T06:16:47.673Z,13.22
2023-09-05T06:19:51.621Z,13.35
2023-09-05T06:22:56.545Z,13.49
2023-09-05T06:26:01.000Z,13.63
2023-09-05T06:29:06.241Z,13.75
2023-09-05T06:32:11.750Z,13.85
2023-09-05T06:35:15.472Z,13.96
2023-09-05T06:38:22.582Z,14.09
2023-09-05T06:41:26.181Z,14.26
2023-09-05T06:44:31.448Z,14.41
2023-09-05T06:47:36.456Z,14.55
2023-09-05T06:50:40.363Z,14.69
2023-09-05T06:53:43.913Z,14.80
2023-09-05T06:56:47.878Z,14.93
2023-09-05T06:59:52.571Z,15.10
2023-09-05T07:02:57.934Z,15.25
2023-09-05T07:06:07.466Z,15.40
2023-09-05T07:09:11.701Z,15.55
2023-09-05T07:12:15.218Z,15.66
2023-09-05T07:15:19.313Z,15.79
2023-09-05T07:18:25.456Z,15.90
2023-09-05T07:21:29.614Z,16.04
2023-09-05T07:24:33.165Z,16.16
2023-09-05T07:27:37.107Z,16.28
2023-09-05T07:30:42.046Z,16.41
2023-09-05T07:33:47.663Z,16.52
2023-09-05T07:36:52.295Z,16.65
2023-09-05T07:39:56.656Z,16.78
2023-09-05T07:43:01.714Z,16.91
2023-09-05T07:46:06.034Z,17.03
2023-09-05T07:49:11.279Z,17.09
2023-09-05T07:52:15.527Z,17.19
2023-09-05T07:55:19.444Z,17.31
2023-09-05T07:58:24.036Z,17.42
2023-09-05T08:01:28.413Z,17.52
2023-09-05T08:04:33.831Z,17.61
2023-09-05T08:07:39.364Z,17.70
2023-09-05T08:10:44.262Z,17.78
2023-09-05T08:13:47.970Z,17.87
2023-09-05T08:16:54.510Z,17.96
2023-09-05T08:19:59.898Z,18.06
2023-09-05T08:23:03.838Z,18.15
2023-09-05T08:26:12.472Z,18.22
2023-09-05T08:29:16.961Z,18.25
2023-09-05T08:32:21.155Z,18.29
2023-09-05T08:35:26.567Z,18.35
2023-09-05T08:38:30.373Z,18.44
2023-09-05T08:41:35.050Z,18.50
2023-09-05T08:44:42.001Z,18.64
2023-09-05T08:47:46.140Z,18.72
2023-09-05T08:50:51.182Z,18.82
2023-09-05T08:53:59.189Z,18.90
2023-09-05T08:57:04.738Z,18.98
2023-09-05T09:00:10.331Z,19.02
2023-09-05T09:03:14.379Z,19.08
2023-09-05T09:06:25.612Z,19.17
2023-09-05T09:09:37.528Z,19.25
2023-09-05T09:12:41.419Z,19.33
2023-09-05T09:15:47.273Z,19.38
2023-09-05T09:18:52.302Z,19.49
2023-09-05T09:22:01.610Z,19.65
2023-09-05T09:25:11.963Z,19.72
2023-09-05T09:28:24.711Z,19.78
2023-09-05T09:31:29.075Z,19.85
2023-09-05T09:34:33.857Z,19.92
2023-09-05T09:37:39.140Z,20.04
2023-09-05T09:40:43.134Z,20.13
2023-09-05T09:43:55.866Z,20.19
2023-09-05T09:47:01.219Z,20.23
2023-09-05T09:50:05.550Z,20.36
2023-09-05T09:53:16.634Z,20.45
2023-09-05T09:56:22.866Z,20.60
2023-09-05T09:59:28.185Z,20.70
2023-09-05T10:02:33.057Z,20.78
2023-09-05T10:05:37.833Z,20.99
2023-09-05T10:08:46.920Z,21.17
2023-09-05T10:11:53.253Z,21.37
2023-09-05T10:14:59.252Z,21.48
2023-09-05T10:18:04.215Z,21.55
2023-09-05T10:21:09.175Z,21.70
2023-09-05T10:24:15.222Z,21.90
2023-09-05T10:27:19.449Z,22.12
2023-09-05T10:30:24.174Z,22.33
2023-09-05T10:33:35.378Z,22.53
2023-09-05T10:36:42.982Z,22.74
2023-09-05T10:39:50.013Z,22.90
2023-09-05T10:42:57.058Z,22.99
2023-09-05T10:46:02.644Z,23.05
2023-09-05T10:49:15.910Z,23.17
2023-09-05T10:52:21.048Z,23.35
2023-09-05T10:55:45.717Z,23.51
2023-09-05T10:58:55.425Z,23.56
2023-09-05T11:02:01.704Z,23.66
2023-09-05T11:05:08.164Z,23.95
2023-09-05T11:08:22.613Z,24.24
2023-09-05T11:11:28.136Z,24.43
2023-09-05T11:14:33.663Z,24.59
2023-09-05T11:17:38.878Z,24.65
2023-09-05T11:20:44.922Z,24.65
2023-09-05T11:23:54.076Z,24.77
2023-09-05T11:26:59.071Z,25.01
2023-09-05T11:30:08.132Z,25.32
2023-09-05T11:33:15.195Z,25.42
2023-09-05T11:36:19.390Z,25.67
2023-09-05T11:39:28.297Z,25.87
2023-09-05T11:42:33.533Z,26.08
2023-09-05T11:45:38.375Z,26.20
2023-09-05T11:48:44.879Z,26.39
2023-09-05T11:51:48.653Z,26.63
2023-09-05T11:54:54.602Z,26.68
2023-09-05T11:58:01.302Z,26.90
2023-09-05T12:01:05.472Z,27.21
2023-09-05T12:04:09.293Z,27.47
2023-09-05T12:07:13.149Z,27.55
2023-09-05T12:10:16.760Z,27.61
2023-09-05T12:13:23.092Z,27.79
2023-09-05T12:16:26.900Z,28.01
2023-09-05T12:19:30.885Z,28.21
2023-09-05T12:22:34.425Z,28.44
2023-09-05T12:25:50.559Z,28.65
2023-09-05T12:29:01.097Z,28.94
2023-09-05T12:32:07.027Z,29.50
2023-09-05T12:35:10.961Z,30.80
2023-09-05T12:38:16.701Z,32.92
2023-09-05T12:41:20.230Z,35.05
2023-09-05T12:44:27.425Z,36.46
2023-09-05T12:47:31.953Z,37.79
2023-09-05T12:50:37.679Z,39.41
2023-09-05T12:53:41.305Z,40.41
2023-09-05T12:56:46.097Z,41.60
2023-09-05T12:59:51.233Z,43.14
2023-09-05T13:02:55.300Z,45.09
2023-09-05T13:05:58.967Z,46.18
2023-09-05T13:09:03.936Z,46.82
2023-09-05T13:12:08.577Z,47.75
2023-09-05T13:15:13.827Z,48.59
2023-09-05T13:18:17.896Z,48.94
2023-09-05T13:21:22.197Z,49.04
2023-09-05T13:24:26.106Z,49.32
2023-09-05T13:27:30.092Z,50.07
2023-09-05T13:30:35.589Z,50.54
2023-09-05T13:33:40.319Z,50.48
2023-09-05T13:36:44.110Z,50.67
2023-09-05T13:39:48.597Z,50.72
2023-09-05T13:42:54.239Z,50.93
2023-09-05T13:45:59.746Z,50.94
2023-09-05T13:49:03.585Z,50.71
2023-09-05T13:52:11.432Z,50.42
2023-09-05T13:55:15.401Z,49.90
2023-09-05T13:58:19.245Z,48.79
2023-09-05T14:01:24.370Z,47.35
2023-09-05T14:04:28.196Z,47.48
2023-09-05T14:07:31.872Z,48.31
2023-09-05T14:10:35.735Z,49.15
2023-09-05T14:13:39.258Z,49.57
2023-09-05T14:16:44.564Z,49.63
2023-09-05T14:19:48.482Z,49.43
2023-09-05T14:22:52.191Z,49.35
2023-09-05T14:25:55.908Z,49.18
2023-09-05T14:29:02.149Z,48.87
2023-09-05T14:32:07.720Z,48.78
2023-09-05T14:35:12.107Z,48.80
2023-09-05T14:38:15.683Z,48.24
2023-09-05T14:41:19.472Z,48.13
2023-09-05T14:44:23.126Z,47.90
2023-09-05T14:47:28.694Z,47.62
2023-09-05T14:50:32.616Z,47.40
2023-09-05T14:53:36.582Z,47.14
2023-09-05T14:56:40.597Z,47.26
2023-09-05T14:59:44.871Z,47.18
2023-09-05T15:02:49.891Z,47.09
2023-09-05T15:05:54.291Z,46.78
2023-09-05T15:08:58.115Z,46.41
2023-09-05T15:12:02.051Z,45.62
2023-09-05T15:15:06.665Z,45.14
2023-09-05T15:18:12.097Z,44.68
2023-09-05T15:21:16.475Z,44.58
2023-09-05T15:24:20.438Z,44.43
2023-09-05T15:27:24.315Z,44.21
2023-09-05T15:30:28.375Z,43.64
2023-09-05T15:33:34.187Z,43.38
2023-09-05T15:36:38.303Z,43.05
2023-09-05T15:39:42.549Z,42.48
2023-09-05T15:42:46.795Z,42.30
2023-09-05T15:45:52.345Z,42.01
2023-09-05T15:48:58.073Z,41.07
2023-09-05T15:52:03.024Z,40.11
2023-09-05T15:55:08.215Z,39.30
2023-09-05T15:58:12.140Z,38.89
2023-09-05T16:01:16.493Z,38.60
2023-09-05T16:04:21.946Z,38.45
2023-09-05T16:07:25.904Z,38.26
2023-09-05T16:10:29.921Z,38.17
2023-09-05T16:13:41.808Z,37.78
2023-09-05T16:17:10.614Z,37.33
2023-09-05T16:20:16.324Z,36.89
2023-09-05T16:23:20.823Z,36.39
2023-09-05T16:26:25.030Z,35.70
2023-09-05T16:29:28.763Z,34.74
2023-09-05T16:32:32.840Z,34.12
2023-09-05T16:35:37.968Z,33.43
2023-09-05T16:38:41.711Z,33.14
2023-09-05T16:41:45.592Z,32.45
2023-09-05T16:44:49.489Z,31.37
2023-09-05T16:47:53.077Z,30.01
2023-09-05T16:50:59.317Z,28.97
2023-09-05T16:54:02.824Z,27.91
2023-09-05T16:57:06.914Z,26.80
2023-09-05T17:00:12.396Z,25.89
2023-09-05T17:03:16.246Z,25.12
2023-09-05T17:06:21.404Z,24.54
2023-09-05T17:09:25.273Z,23.99
2023-09-05T17:12:29.180Z,23.48
2023-09-05T17:15:33.048Z,23.05
2023-09-05T17:18:38.215Z,22.71
2023-09-05T17:21:43.443Z,22.40
2023-09-05T17:24:48.263Z,22.11
2023-09-05T17:27:52.161Z,21.78
2023-09-05T17:30:55.929Z,21.49
2023-09-05T17:34:00.043Z,21.26
2023-09-05T17:37:08.045Z,20.94
2023-09-05T17:40:13.845Z,20.67
2023-09-05T17:43:17.511Z,20.44
2023-09-05T17:46:21.636Z,20.28
2023-09-05T17:49:25.194Z,20.18
2023-09-05T17:52:30.942Z,20.00
2023-09-05T17:55:34.578Z,19.82
2023-09-05T17:58:38.727Z,19.68
2023-09-05T18:01:42.680Z,19.53
2023-09-05T18:04:47.092Z,19.43
2023-09-05T18:07:52.512Z,19.32
2023-09-05T18:11:05.336Z,19.18
2023-09-05T18:14:12.674Z,19.05
2023-09-05T18:20:25.982Z,18.86
2023-09-05T18:23:29.934Z,18.72
2023-09-05T18:26:34.963Z,18.60
2023-09-05T18:29:39.010Z,18.51
2023-09-05T18:32:42.536Z,18.42
2023-09-05T18:35:47.877Z,18.34
2023-09-05T18:38:51.790Z,18.23
2023-09-05T18:41:55.558Z,18.10
2023-09-05T18:44:59.230Z,17.98
2023-09-05T18:48:04.493Z,17.88
2023-09-05T18:51:12.512Z,17.74
2023-09-05T18:54:16.488Z,17.63
2023-09-05T18:57:20.521Z,17.55
2023-09-05T19:00:24.816Z,17.49
2023-09-05T19:03:28.668Z,17.42
2023-09-05T19:06:34.264Z,17.33
2023-09-05T19:09:38.333Z,17.29
2023-09-05T19:12:42.320Z,17.27
2023-09-05T19:15:47.093Z,17.23
2023-09-05T19:18:51.957Z,17.17
2023-09-05T19:21:57.369Z,17.06
2023-09-05T19:25:02.287Z,17.00
2023-09-05T19:28:07.454Z,16.95
2023-09-05T19:31:16.042Z,16.85
2023-09-05T19:34:19.821Z,16.76
2023-09-05T19:37:25.410Z,16.68
2023-09-05T19:40:31.450Z,16.59
2023-09-05T19:43:35.259Z,16.52
2023-09-05T19:46:39.437Z,16.46
2023-09-05T19:49:43.157Z,16.41
2023-09-05T19:52:49.032Z,16.40
2023-09-05T19:55:53.088Z,16.36
2023-09-05T19:58:58.113Z,16.34
2023-09-05T20:02:03.566Z,16.30
2023-09-05T20:05:09.082Z,16.25
2023-09-05T20:08:15.981Z,16.18
2023-09-05T20:11:20.778Z,16.11
2023-09-05T20:14:24.412Z,16.05
2023-09-05T20:17:28.756Z,16.00
2023-09-05T20:20:32.473Z,15.93
2023-09-05T20:23:37.820Z,15.89
2023-09-05T20:26:41.817Z,15.84
2023-09-05T20:29:45.940Z,15.78
2023-09-05T20:32:50.048Z,15.71
2023-09-05T20:35:55.176Z,15.65
2023-09-05T20:39:00.489Z,15.59
2023-09-05T20:42:05.342Z,15.54
2023-09-05T20:45:13.406Z,15.49
2023-09-05T20:48:17.597Z,15.43
2023-09-05T20:51:21.666Z,15.38
2023-09-05T20:54:27.102Z,15.32
2023-09-05T20:57:31.064Z,15.27
2023-09-05T21:00:35.206Z,15.20
2023-09-05T21:03:39.724Z,15.15
2023-09-05T21:06:43.500Z,15.14
2023-09-05T21:09:48.860Z,15.13
2023-09-05T21:12:52.946Z,15.13
2023-09-05T21:15:57.978Z,15.12
2023-09-05T21:19:02.414Z,15.09
2023-09-05T21:22:06.522Z,15.09
2023-09-05T21:25:13.106Z,14.98
2023-09-05T21:28:17.067Z,14.84
2023-09-05T21:31:21.163Z,14.74
2023-09-05T21:34:25.216Z,14.68
2023-09-05T21:37:28.945Z,14.65
2023-09-05T21:40:34.374Z,14.67
2023-09-05T21:43:38.501Z,14.71
2023-09-05T21:46:42.230Z,14.71
2023-09-05T21:49:46.222Z,14.68
2023-09-05T21:52:49.944Z,14.62
2023-09-05T21:55:55.250Z,14.58
2023-09-05T21:58:59.202Z,14.50
2023-09-05T22:02:03.260Z,14.42
2023-09-05T22:05:08.062Z,14.34
2023-09-05T22:08:11.830Z,14.29
2023-09-05T22:11:17.236Z,14.29
2023-09-05T22:14:24.334Z,14.30
2023-09-05T22:17:28.112Z,14.31
2023-09-05T22:20:41.109Z,14.26
2023-09-05T22:23:52.422Z,14.23
2023-09-05T22:26:59.834Z,14.21
2023-09-05T22:30:09.590Z,14.20
2023-09-05T22:33:13.565Z,14.18
2023-09-05T22:36:17.539Z,14.14
2023-09-05T22:39:21.681Z,14.11
2023-09-05T22:42:28.025Z,14.09
2023-09-05T22:45:32.123Z,14.05
2023-09-05T22:48:35.924Z,13.99
2023-09-05T22:51:39.871Z,13.94
2023-09-05T22:54:44.316Z,13.90
2023-09-05T22:57:51.256Z,13.89
2023-09-05T23:00:55.710Z,13.91
2023-09-05T23:03:59.844Z,13.88
2023-09-05T23:07:05.421Z,13.88
2023-09-05T23:10:09.489Z,13.83
2023-09-05T23:13:14.915Z,13.80
2023-09-05T23:16:19.283Z,13.71
2023-09-05T23:19:23.205Z,13.63
2023-09-05T23:22:28.635Z,13.58
2023-09-05T23:25:36.494Z,13.55
2023-09-05T23:28:41.659Z,13.52
2023-09-05T23:31:45.581Z,13.42
2023-09-05T23:34:49.381Z,13.38
2023-09-05T23:37:55.886Z,13.39
2023-09-05T23:40:59.596Z,13.39
2023-09-05T23:44:05.606Z,13.37
2023-09-05T23:47:11.252Z,13.34
2023-09-05T23:50:15.397Z,13.33
2023-09-05T23:53:19.348Z,13.34
2023-09-05T23:56:23.582Z,13.35
2023-09-05T23:59:29.267Z,13.31
